Time;durP1;ratioP1;P1;durP2;ratioP2;P2;SDS_P1;SDS_P2;PMS_P1;PMS_P2;Temp;Humidity;BMP_temperature;BMP_pressure;BME280_temperature;BME280_humidity;BME280_pressure;Samples;Min_cycle;Max_cycle;Signal;HPM_P1;HPM_P2
2021/12/09 00:05:01;;;;;;;17.6;30.2;;;;;;;-2.5;79.9;97950;;;;
2021/12/09 00:16:01;;;;;;;16.5;31.4;;;;;;;-2.5;79.6;97940;;;;
2021/12/09 00:26:01;;;;;;;16.5;31.4;;;;;;;-2.4;79.4;97930;;;;
2021/12/09 00:36:01;;;;;;;16.5;31.4;;;;;;;-2.6;79.9;97920;;;;
2021/12/09 00:46:01;;;;;;;15.3;26;;;;;;;-2.6;79.9;97940;;;;
2021/12/09 00:56:01;;;;;;;15.3;26;;;;;;;-2.7;80.1;97920;;;;
2021/12/09 01:06:01;;;;;;;15.3;26;;;;;;;-2.7;80.3;97900;;;;
2021/12/09 01:16:01;;;;;;;16;25.4;;;;;;;-2.6;80.2;97880;;;;
2021/12/09 01:26:03;;;;;;;16;25.4;;;;;;;-2.7;80.2;97870;;;;
2021/12/09 01:37:01;;;;;;;16;25.4;;;;;;;-2.8;80.3;97860;;;;
2021/12/09 01:48:01;;;;;;;17.5;26.9;;;;;;;-2.7;80.3;97870;;;;
2021/12/09 01:59:02;;;;;;;17.5;26.9;;;;;;;-2.7;80.3;97860;;;;
2021/12/09 02:09:01;;;;;;;17.5;26.9;;;;;;;-2.9;80.5;97860;;;;
2021/12/09 02:19:01;;;;;;;17.7;28;;;;;;;-2.8;80.5;97870;;;;
2021/12/09 02:30:01;;;;;;;17.7;28;;;;;;;-2.9;80.8;97860;;;;
2021/12/09 02:41:02;;;;;;;17.7;28;;;;;;;-2.6;80.2;97840;;;;
2021/12/09 02:51:01;;;;;;;15.7;27.1;;;;;;;-2.8;80.8;97850;;;;
2021/12/09 03:01:01;;;;;;;15.7;27.1;;;;;;;-2.7;80.5;97870;;;;
2021/12/09 03:12:05;;;;;;;15.7;27.1;;;;;;;-2.6;80;97870;;;;
2021/12/09 03:23:01;;;;;;;15.5;27.2;;;;;;;-2.7;80.3;97840;;;;
2021/12/09 03:34:01;;;;;;;15.5;27.2;;;;;;;-2.7;80.5;97850;;;;
2021/12/09 03:45:01;;;;;;;14.2;24;;;;;;;-2.6;80.6;97860;;;;
2021/12/09 03:56:01;;;;;;;14.2;24;;;;;;;-2.5;80.5;97880;;;;
2021/12/09 04:07:01;;;;;;;14.2;24;;;;;;;-2.6;80.8;97870;;;;
2021/12/09 04:18:01;;;;;;;16.5;26.6;;;;;;;-2.6;81;97870;;;;
2021/12/09 04:29:01;;;;;;;16.5;26.6;;;;;;;-2.6;80.6;97870;;;;
2021/12/09 04:40:01;;;;;;;16.5;26.6;;;;;;;-2.6;80.5;97860;;;;
2021/12/09 04:50:01;;;;;;;15.5;23.6;;;;;;;-2.6;80;97860;;;;
2021/12/09 05:01:01;;;;;;;15.5;23.6;;;;;;;-2.6;80.3;97840;;;;
2021/12/09 05:11:06;;;;;;;15.5;23.6;;;;;;;-2.7;80.8;97810;;;;
2021/12/09 05:22:01;;;;;;;15.4;25.8;;;;;;;-2.7;80.9;97820;;;;
2021/12/09 05:32:08;;;;;;;15.4;25.8;;;;;;;-2.8;81.3;97830;;;;
2021/12/09 05:42:01;;;;;;;15.4;25.8;;;;;;;-2.8;81.6;97850;;;;
2021/12/09 05:52:01;;;;;;;16.7;30.6;;;;;;;-2.7;81.2;97820;;;;
2021/12/09 06:02:01;;;;;;;16.7;30.6;;;;;;;-2.8;81.7;97840;;;;
2021/12/09 06:13:01;;;;;;;16.7;30.6;;;;;;;-2.5;81.3;97850;;;;
2021/12/09 06:24:01;;;;;;;20.3;37.9;;;;;;;-2.2;81;97880;;;;
2021/12/09 06:34:01;;;;;;;20.3;37.9;;;;;;;-2.3;80.9;97900;;;;
2021/12/09 06:45:01;;;;;;;24.4;41.9;;;;;;;-2.2;80.6;97890;;;;
2021/12/09 06:56:01;;;;;;;24.4;41.9;;;;;;;-2.2;80.6;97900;;;;
2021/12/09 07:06:06;;;;;;;24.4;41.9;;;;;;;-2.3;80.7;97910;;;;
2021/12/09 07:16:01;;;;;;;24.8;41.5;;;;;;;-2.2;80.1;97910;;;;
2021/12/09 07:26:01;;;;;;;24.8;41.5;;;;;;;-2.2;80.3;97900;;;;
2021/12/09 07:37:04;;;;;;;24.8;41.5;;;;;;;-2.1;80;97880;;;;
2021/12/09 07:48:01;;;;;;;20.9;30.8;;;;;;;-2;79.7;97900;;;;
2021/12/09 07:59:01;;;;;;;20.9;30.8;;;;;;;-2;79.8;97880;;;;
2021/12/09 08:09:01;;;;;;;20.9;30.8;;;;;;;-2.1;79.8;97880;;;;
2021/12/09 08:20:01;;;;;;;20.5;30.3;;;;;;;-2.1;80.1;97890;;;;
2021/12/09 08:30:04;;;;;;;20.5;30.3;;;;;;;-2;79.7;97890;;;;
2021/12/09 08:41:02;;;;;;;20.5;30.3;;;;;;;-1.5;78.9;97870;;;;
2021/12/09 08:52:01;;;;;;;23.7;34.8;;;;;;;-1.5;78.4;97870;;;;
2021/12/09 09:02:01;;;;;;;23.7;34.8;;;;;;;-1.3;77.9;97900;;;;
2021/12/09 09:13:01;;;;;;;23.7;34.8;;;;;;;-1.2;78;97860;;;;
2021/12/09 09:23:01;;;;;;;24;31.9;;;;;;;-0.7;76.8;97860;;;;
2021/12/09 09:33:01;;;;;;;24;31.9;;;;;;;-0.9;77.5;97820;;;;
2021/12/09 09:44:10;;;;;;;23.3;30.6;;;;;;;-0.9;77.5;97800;;;;
2021/12/09 09:54:01;;;;;;;23.3;30.6;;;;;;;-0.8;77.4;97830;;;;
2021/12/09 10:05:04;;;;;;;23.3;30.6;;;;;;;-0.7;77;97810;;;;
2021/12/09 10:16:01;;;;;;;26.1;35.4;;;;;;;-0.8;77.9;97790;;;;
2021/12/09 10:27:01;;;;;;;26.1;35.4;;;;;;;-0.5;76.7;97800;;;;
2021/12/09 10:38:02;;;;;;;26.1;35.4;;;;;;;-0.3;76.3;97790;;;;
2021/12/09 10:48:03;;;;;;;27.3;37.4;;;;;;;-0.3;76.1;97770;;;;
2021/12/09 10:59:02;;;;;;;27.3;37.4;;;;;;;-0.5;77.3;97750;;;;
2021/12/09 11:09:01;;;;;;;27.3;37.4;;;;;;;-0.7;78.4;97750;;;;
2021/12/09 11:20:03;;;;;;;27.8;38.2;;;;;;;-0.5;77.9;97740;;;;
2021/12/09 11:30:09;;;;;;;27.8;38.2;;;;;;;-0.4;78;97730;;;;
2021/12/09 11:41:02;;;;;;;27.8;38.2;;;;;;;-0.5;78.2;97740;;;;
2021/12/09 11:52:01;;;;;;;24.9;33.4;;;;;;;-0.3;78.2;97710;;;;
2021/12/09 12:13:05;;;;;;;27.3;38.3;;;;;;;-0.2;78.2;97700;;;;
2021/12/09 12:24:12;;;;;;;27.3;38.3;;;;;;;0;77.9;97720;;;;
2021/12/09 12:34:16;;;;;;;27.3;38.3;;;;;;;0.2;77.4;97720;;;;
2021/12/09 12:44:01;;;;;;;27.2;34.4;;;;;;;0.3;77.1;97720;;;;
2021/12/09 12:55:10;;;;;;;27.2;34.4;;;;;;;0.3;77.3;97710;;;;
2021/12/09 13:05:08;;;;;;;27.2;34.4;;;;;;;0.3;77.7;97690;;;;
2021/12/09 13:15:01;;;;;;;28.2;35.2;;;;;;;0.2;78.4;97690;;;;
2021/12/09 13:26:01;;;;;;;28.2;35.2;;;;;;;0.2;78.1;97690;;;;
2021/12/09 13:36:15;;;;;;;28.2;35.2;;;;;;;0;78.2;97710;;;;
2021/12/09 13:47:09;;;;;;;25.5;34.1;;;;;;;0.2;78.2;97720;;;;
2021/12/09 13:57:01;;;;;;;25.5;34.1;;;;;;;0.5;77.3;97710;;;;
2021/12/09 14:07:08;;;;;;;25.5;34.1;;;;;;;0.4;77.3;97680;;;;
2021/12/09 14:18:05;;;;;;;24.5;32.8;;;;;;;0.2;77.7;97680;;;;
2021/12/09 14:28:01;;;;;;;24.5;32.8;;;;;;;-0.2;79;97700;;;;
2021/12/09 14:38:01;;;;;;;24.5;32.8;;;;;;;0.1;78.4;97680;;;;
2021/12/09 14:49:03;;;;;;;36.1;47.1;;;;;;;-0.1;78.9;97680;;;;
2021/12/09 14:59:01;;;;;;;36.1;47.1;;;;;;;-0.2;79.4;97680;;;;
2021/12/09 15:09:12;;;;;;;36.1;47.1;;;;;;;-0.4;79.6;97690;;;;
2021/12/09 15:19:01;;;;;;;24.5;33.8;;;;;;;-0.3;79.7;97710;;;;
2021/12/09 15:29:01;;;;;;;24.5;33.8;;;;;;;-0.4;79.8;97680;;;;
2021/12/09 15:39:01;;;;;;;24.5;33.8;;;;;;;-0.5;80.1;97660;;;;
2021/12/09 15:50:01;;;;;;;29.3;39.3;;;;;;;-0.6;80.1;97650;;;;
2021/12/09 16:00:01;;;;;;;29.3;39.3;;;;;;;-0.6;80.3;97640;;;;
2021/12/09 16:11:01;;;;;;;29.3;39.3;;;;;;;-0.4;80.2;97650;;;;
2021/12/09 16:21:05;;;;;;;30;42.6;;;;;;;-0.7;80.4;97660;;;;
2021/12/09 16:32:01;;;;;;;30;42.6;;;;;;;-0.8;80.5;97680;;;;
2021/12/09 16:43:01;;;;;;;28.3;37.8;;;;;;;-0.7;80.2;97680;;;;
2021/12/09 16:53:02;;;;;;;28.3;37.8;;;;;;;-0.8;80.7;97710;;;;
2021/12/09 17:04:01;;;;;;;28.3;37.8;;;;;;;-0.8;80.2;97700;;;;
2021/12/09 17:15:01;;;;;;;31.4;47.9;;;;;;;-0.9;80.6;97710;;;;
2021/12/09 17:26:04;;;;;;;31.4;47.9;;;;;;;-1;80.6;97690;;;;
2021/12/09 17:36:01;;;;;;;31.4;47.9;;;;;;;-0.9;80.4;97680;;;;
2021/12/09 17:46:01;;;;;;;30.4;48.6;;;;;;;-0.8;80.1;97690;;;;
2021/12/09 17:57:01;;;;;;;30.4;48.6;;;;;;;-0.9;80.3;97670;;;;
2021/12/09 18:07:01;;;;;;;30.4;48.6;;;;;;;-0.9;80.3;97650;;;;
2021/12/09 18:17:05;;;;;;;32.8;48.7;;;;;;;-1.2;80.9;97650;;;;
2021/12/09 18:28:01;;;;;;;32.8;48.7;;;;;;;-1;80.6;97650;;;;
2021/12/09 18:38:01;;;;;;;32.8;48.7;;;;;;;-1;80.6;97630;;;;
2021/12/09 18:49:01;;;;;;;32.7;44.9;;;;;;;-1.2;81;97630;;;;
2021/12/09 18:59:01;;;;;;;32.7;44.9;;;;;;;-1.1;80.9;97640;;;;
2021/12/09 19:10:01;;;;;;;32.7;44.9;;;;;;;-0.8;80.4;97650;;;;
2021/12/09 19:20:01;;;;;;;30.4;45.5;;;;;;;-0.8;80.2;97640;;;;
2021/12/09 19:30:01;;;;;;;30.4;45.5;;;;;;;-0.8;80.4;97630;;;;
2021/12/09 19:40:01;;;;;;;30.4;45.5;;;;;;;-0.8;79.9;97620;;;;
2021/12/09 19:50:01;;;;;;;33.7;50.5;;;;;;;-0.8;80.3;97630;;;;
2021/12/09 20:00:01;;;;;;;33.7;50.5;;;;;;;-0.7;79.7;97600;;;;
2021/12/09 20:11:01;;;;;;;33.7;50.5;;;;;;;-0.6;79.8;97610;;;;
2021/12/09 20:21:01;;;;;;;32.8;47.1;;;;;;;-0.6;79.7;97630;;;;
2021/12/09 20:32:01;;;;;;;32.8;47.1;;;;;;;-0.6;79.9;97620;;;;
2021/12/09 20:42:01;;;;;;;36.9;54.1;;;;;;;-0.6;79.9;97590;;;;
2021/12/09 20:53:01;;;;;;;36.9;54.1;;;;;;;-0.7;80.2;97580;;;;
2021/12/09 21:03:01;;;;;;;36.9;54.1;;;;;;;-0.8;80.7;97590;;;;
2021/12/09 21:14:01;;;;;;;40.5;55.7;;;;;;;-0.8;81;97580;;;;
2021/12/09 21:24:01;;;;;;;40.5;55.7;;;;;;;-0.8;81.1;97580;;;;
2021/12/09 21:34:03;;;;;;;40.5;55.7;;;;;;;-0.7;80.8;97590;;;;
2021/12/09 21:45:01;;;;;;;39.3;51.7;;;;;;;-0.6;80.7;97540;;;;
2021/12/09 21:56:01;;;;;;;39.3;51.7;;;;;;;-0.5;80.1;97560;;;;
2021/12/09 22:06:01;;;;;;;39.3;51.7;;;;;;;-0.6;81;97570;;;;
2021/12/09 22:16:03;;;;;;;41.8;59.2;;;;;;;-0.6;80.6;97540;;;;
2021/12/09 22:26:01;;;;;;;41.8;59.2;;;;;;;-0.6;80.6;97540;;;;
2021/12/09 22:36:03;;;;;;;41.8;59.2;;;;;;;-0.5;80.2;97520;;;;
2021/12/09 22:47:01;;;;;;;43.8;63.3;;;;;;;-0.6;80.6;97510;;;;
2021/12/09 22:58:01;;;;;;;43.8;63.3;;;;;;;-0.6;80.4;97480;;;;
2021/12/09 23:08:01;;;;;;;43.8;63.3;;;;;;;-0.4;80.3;97500;;;;
2021/12/09 23:19:01;;;;;;;44.6;61.8;;;;;;;-0.6;80.9;97480;;;;
2021/12/09 23:29:01;;;;;;;44.6;61.8;;;;;;;-0.6;80.8;97470;;;;
2021/12/09 23:40:01;;;;;;;44.6;61.8;;;;;;;-0.4;79.7;97500;;;;
2021/12/09 23:50:09;;;;;;;43;70.5;;;;;;;-0.2;79.7;97480;;;;
